sensor_id;sensor_type;location;lat;lon;timestamp;pressure;altitude;pressure_sealevel;temperature
72675;BMP280;60752;53.962;9.614;2022-12-28T00:02:08;101406.66;;;4.38
72675;BMP280;60752;53.962;9.614;2022-12-28T00:07:10;101398.72;;;4.40
72675;BMP280;60752;53.962;9.614;2022-12-28T00:12:10;101380.16;;;4.43
72675;BMP280;60752;53.962;9.614;2022-12-28T00:17:11;101376.56;;;4.44
72675;BMP280;60752;53.962;9.614;2022-12-28T00:22:12;101367.63;;;4.40
72675;BMP280;60752;53.962;9.614;2022-12-28T00:27:13;101355.25;;;4.42
72675;BMP280;60752;53.962;9.614;2022-12-28T00:32:13;101341.28;;;4.43
72675;BMP280;60752;53.962;9.614;2022-12-28T00:37:15;101336.91;;;4.43
72675;BMP280;60752;53.962;9.614;2022-12-28T00:42:15;101335.25;;;4.49
72675;BMP280;60752;53.962;9.614;2022-12-28T00:47:16;101329.28;;;4.48
72675;BMP280;60752;53.962;9.614;2022-12-28T00:52:17;101308.78;;;4.47
72675;BMP280;60752;53.962;9.614;2022-12-28T00:57:18;101301.56;;;4.49
72675;BMP280;60752;53.962;9.614;2022-12-28T01:02:18;101294.81;;;4.48
72675;BMP280;60752;53.962;9.614;2022-12-28T01:07:20;101288.44;;;4.50
72675;BMP280;60752;53.962;9.614;2022-12-28T01:12:20;101274.88;;;4.48
72675;BMP280;60752;53.962;9.614;2022-12-28T01:17:20;101279.03;;;4.49
72675;BMP280;60752;53.962;9.614;2022-12-28T01:22:22;101274.88;;;4.48
72675;BMP280;60752;53.962;9.614;2022-12-28T01:27:23;101270.06;;;4.52
72675;BMP280;60752;53.962;9.614;2022-12-28T01:32:23;101261.06;;;4.55
72675;BMP280;60752;53.962;9.614;2022-12-28T01:37:25;101261.50;;;4.51
72675;BMP280;60752;53.962;9.614;2022-12-28T01:42:25;101250.19;;;4.46
72675;BMP280;60752;53.962;9.614;2022-12-28T01:47:29;101243.41;;;4.45
72675;BMP280;60752;53.962;9.614;2022-12-28T01:52:36;101232.91;;;4.40
72675;BMP280;60752;53.962;9.614;2022-12-28T01:57:41;101232.91;;;4.40
72675;BMP280;60752;53.962;9.614;2022-12-28T02:02:47;101215.63;;;4.34
72675;BMP280;60752;53.962;9.614;2022-12-28T02:07:52;101199.69;;;4.30
72675;BMP280;60752;53.962;9.614;2022-12-28T02:12:55;101185.31;;;4.34
72675;BMP280;60752;53.962;9.614;2022-12-28T02:17:56;101177.16;;;4.31
72675;BMP280;60752;53.962;9.614;2022-12-28T02:28:46;101158.91;;;4.26
72675;BMP280;60752;53.962;9.614;2022-12-28T02:33:57;101138.63;;;4.22
72675;BMP280;60752;53.962;9.614;2022-12-28T02:39:03;101117.28;;;4.20
72675;BMP280;60752;53.962;9.614;2022-12-28T02:44:06;101109.53;;;4.20
72675;BMP280;60752;53.962;9.614;2022-12-28T02:49:18;101097.00;;;4.17
72675;BMP280;60752;53.962;9.614;2022-12-28T02:54:30;101085.25;;;4.15
72675;BMP280;60752;53.962;9.614;2022-12-28T03:05:12;101064.75;;;4.13
72675;BMP280;60752;53.962;9.614;2022-12-28T03:10:17;101057.22;;;4.12
72675;BMP280;60752;53.962;9.614;2022-12-28T03:15:23;101050.50;;;4.11
72675;BMP280;60752;53.962;9.614;2022-12-28T03:20:27;101028.97;;;4.10
72675;BMP280;60752;53.962;9.614;2022-12-28T03:25:33;101018.63;;;4.10
72675;BMP280;60752;53.962;9.614;2022-12-28T03:30:37;101005.31;;;4.07
72675;BMP280;60752;53.962;9.614;2022-12-28T03:35:44;100989.19;;;4.05
72675;BMP280;60752;53.962;9.614;2022-12-28T03:40:47;100976.03;;;4.06
72675;BMP280;60752;53.962;9.614;2022-12-28T03:45:55;100966.69;;;4.05
72675;BMP280;60752;53.962;9.614;2022-12-28T03:50:56;100939.00;;;4.06
72675;BMP280;60752;53.962;9.614;2022-12-28T03:56:07;100933.59;;;4.07
72675;BMP280;60752;53.962;9.614;2022-12-28T04:01:10;100912.66;;;4.09
72675;BMP280;60752;53.962;9.614;2022-12-28T04:06:11;100898.00;;;4.03
72675;BMP280;60752;53.962;9.614;2022-12-28T04:11:12;100884.41;;;4.07
72675;BMP280;60752;53.962;9.614;2022-12-28T04:16:14;100879.88;;;4.03
72675;BMP280;60752;53.962;9.614;2022-12-28T04:21:14;100858.16;;;4.04
72675;BMP280;60752;53.962;9.614;2022-12-28T04:26:16;100874.28;;;4.06
72675;BMP280;60752;53.962;9.614;2022-12-28T04:31:18;100843.00;;;4.07
72675;BMP280;60752;53.962;9.614;2022-12-28T04:36:18;100849.19;;;4.06
72675;BMP280;60752;53.962;9.614;2022-12-28T04:41:19;100822.28;;;4.07
72675;BMP280;60752;53.962;9.614;2022-12-28T04:46:21;100830.03;;;4.07
72675;BMP280;60752;53.962;9.614;2022-12-28T04:51:22;100828.59;;;4.11
72675;BMP280;60752;53.962;9.614;2022-12-28T04:56:25;100802.69;;;4.11
72675;BMP280;60752;53.962;9.614;2022-12-28T05:01:27;100807.22;;;4.16
72675;BMP280;60752;53.962;9.614;2022-12-28T05:06:27;100797.06;;;4.14
72675;BMP280;60752;53.962;9.614;2022-12-28T05:11:28;100789.09;;;4.16
72675;BMP280;60752;53.962;9.614;2022-12-28T05:16:30;100782.31;;;4.15
72675;BMP280;60752;53.962;9.614;2022-12-28T05:21:30;100764.00;;;4.16
72675;BMP280;60752;53.962;9.614;2022-12-28T05:26:31;100758.97;;;4.21
72675;BMP280;60752;53.962;9.614;2022-12-28T05:31:33;100739.44;;;4.19
72675;BMP280;60752;53.962;9.614;2022-12-28T05:36:33;100741.81;;;4.20
72675;BMP280;60752;53.962;9.614;2022-12-28T05:41:33;100739.59;;;4.24
72675;BMP280;60752;53.962;9.614;2022-12-28T05:46:35;100731.59;;;4.26
72675;BMP280;60752;53.962;9.614;2022-12-28T05:51:35;100726.19;;;4.27
72675;BMP280;60752;53.962;9.614;2022-12-28T05:56:36;100719.75;;;4.30
72675;BMP280;60752;53.962;9.614;2022-12-28T06:01:39;100715.13;;;4.32
72675;BMP280;60752;53.962;9.614;2022-12-28T06:06:40;100707.38;;;4.32
72675;BMP280;60752;53.962;9.614;2022-12-28T06:11:41;100706.47;;;4.38
72675;BMP280;60752;53.962;9.614;2022-12-28T06:16:43;100702.88;;;4.39
72675;BMP280;60752;53.962;9.614;2022-12-28T06:21:43;100686.34;;;4.40
72675;BMP280;60752;53.962;9.614;2022-12-28T06:26:44;100691.63;;;4.45
72675;BMP280;60752;53.962;9.614;2022-12-28T06:31:46;100669.88;;;4.46
72675;BMP280;60752;53.962;9.614;2022-12-28T06:36:49;100673.59;;;4.50
72675;BMP280;60752;53.962;9.614;2022-12-28T06:41:49;100659.97;;;4.55
72675;BMP280;60752;53.962;9.614;2022-12-28T06:46:51;100665.72;;;4.57
72675;BMP280;60752;53.962;9.614;2022-12-28T06:51:51;100657.97;;;4.57
72675;BMP280;60752;53.962;9.614;2022-12-28T06:56:51;100654.13;;;4.59
72675;BMP280;60752;53.962;9.614;2022-12-28T07:01:53;100644.06;;;4.63
72675;BMP280;60752;53.962;9.614;2022-12-28T07:06:53;100650.59;;;4.65
72675;BMP280;60752;53.962;9.614;2022-12-28T07:11:54;100633.00;;;4.67
72675;BMP280;60752;53.962;9.614;2022-12-28T07:16:56;100650.25;;;4.73
72675;BMP280;60752;53.962;9.614;2022-12-28T07:21:56;100621.28;;;4.76
72675;BMP280;60752;53.962;9.614;2022-12-28T07:26:56;100634.78;;;4.78
72675;BMP280;60752;53.962;9.614;2022-12-28T07:31:58;100627.78;;;4.79
72675;BMP280;60752;53.962;9.614;2022-12-28T07:36:58;100629.59;;;4.90
72675;BMP280;60752;53.962;9.614;2022-12-28T07:41:59;100625.16;;;4.91
72675;BMP280;60752;53.962;9.614;2022-12-28T07:47:00;100617.66;;;4.89
72675;BMP280;60752;53.962;9.614;2022-12-28T07:52:01;100633.84;;;4.96
72675;BMP280;60752;53.962;9.614;2022-12-28T07:57:02;100625.97;;;5.03
72675;BMP280;60752;53.962;9.614;2022-12-28T08:02:03;100618.03;;;5.09
72675;BMP280;60752;53.962;9.614;2022-12-28T08:07:04;100626.34;;;5.12
72675;BMP280;60752;53.962;9.614;2022-12-28T08:12:04;100627.00;;;5.19
72675;BMP280;60752;53.962;9.614;2022-12-28T08:17:06;100624.41;;;5.19
72675;BMP280;60752;53.962;9.614;2022-12-28T08:22:06;100624.97;;;5.21
72675;BMP280;60752;53.962;9.614;2022-12-28T08:27:07;100623.81;;;5.28
72675;BMP280;60752;53.962;9.614;2022-12-28T08:32:08;100618.22;;;5.36
72675;BMP280;60752;53.962;9.614;2022-12-28T08:37:09;100608.03;;;5.47
72675;BMP280;60752;53.962;9.614;2022-12-28T08:42:09;100605.13;;;5.43
72675;BMP280;60752;53.962;9.614;2022-12-28T08:47:11;100609.84;;;5.46
72675;BMP280;60752;53.962;9.614;2022-12-28T08:52:11;100610.69;;;5.52
72675;BMP280;60752;53.962;9.614;2022-12-28T08:57:12;100602.22;;;5.56
72675;BMP280;60752;53.962;9.614;2022-12-28T09:02:14;100605.88;;;5.60
72675;BMP280;60752;53.962;9.614;2022-12-28T09:07:14;100610.94;;;5.67
72675;BMP280;60752;53.962;9.614;2022-12-28T09:12:14;100607.63;;;5.72
72675;BMP280;60752;53.962;9.614;2022-12-28T09:17:16;100608.25;;;5.79
72675;BMP280;60752;53.962;9.614;2022-12-28T09:22:16;100619.53;;;5.84
72675;BMP280;60752;53.962;9.614;2022-12-28T09:27:17;100616.41;;;5.87
72675;BMP280;60752;53.962;9.614;2022-12-28T09:32:18;100620.44;;;5.95
72675;BMP280;60752;53.962;9.614;2022-12-28T09:37:19;100610.44;;;6.04
72675;BMP280;60752;53.962;9.614;2022-12-28T09:42:22;100613.16;;;6.14
72675;BMP280;60752;53.962;9.614;2022-12-28T09:47:29;100616.63;;;6.19
72675;BMP280;60752;53.962;9.614;2022-12-28T09:52:33;100612.50;;;6.23
72675;BMP280;60752;53.962;9.614;2022-12-28T09:57:36;100603.75;;;6.30
72675;BMP280;60752;53.962;9.614;2022-12-28T10:02:39;100610.88;;;6.39
72675;BMP280;60752;53.962;9.614;2022-12-28T10:07:40;100607.88;;;6.47
72675;BMP280;60752;53.962;9.614;2022-12-28T10:12:40;100593.84;;;6.48
72675;BMP280;60752;53.962;9.614;2022-12-28T10:17:43;100604.84;;;6.55
72675;BMP280;60752;53.962;9.614;2022-12-28T10:22:48;100602.31;;;6.61
72675;BMP280;60752;53.962;9.614;2022-12-28T10:27:50;100602.41;;;6.71
72675;BMP280;60752;53.962;9.614;2022-12-28T10:32:54;100608.69;;;6.75
72675;BMP280;60752;53.962;9.614;2022-12-28T10:38:00;100612.88;;;6.76
72675;BMP280;60752;53.962;9.614;2022-12-28T10:43:01;100609.31;;;6.82
72675;BMP280;60752;53.962;9.614;2022-12-28T10:48:07;100626.28;;;6.90
72675;BMP280;60752;53.962;9.614;2022-12-28T10:53:17;100616.47;;;6.97
72675;BMP280;60752;53.962;9.614;2022-12-28T10:58:20;100610.56;;;7.06
72675;BMP280;60752;53.962;9.614;2022-12-28T11:03:28;100610.66;;;7.11
72675;BMP280;60752;53.962;9.614;2022-12-28T11:08:28;100600.25;;;7.17
72675;BMP280;60752;53.962;9.614;2022-12-28T11:13:29;100592.75;;;7.20
72675;BMP280;60752;53.962;9.614;2022-12-28T11:18:30;100595.88;;;7.22
72675;BMP280;60752;53.962;9.614;2022-12-28T11:23:31;100595.13;;;7.27
72675;BMP280;60752;53.962;9.614;2022-12-28T11:28:31;100596.16;;;7.26
72675;BMP280;60752;53.962;9.614;2022-12-28T11:33:37;100606.63;;;7.31
72675;BMP280;60752;53.962;9.614;2022-12-28T11:38:41;100596.75;;;7.33
72675;BMP280;60752;53.962;9.614;2022-12-28T11:43:50;100597.34;;;7.40
72675;BMP280;60752;53.962;9.614;2022-12-28T11:48:57;100593.44;;;7.42
72675;BMP280;60752;53.962;9.614;2022-12-28T11:54:00;100578.88;;;7.41
72675;BMP280;60752;53.962;9.614;2022-12-28T11:59:19;100581.22;;;7.43
72675;BMP280;60752;53.962;9.614;2022-12-28T12:04:37;100577.91;;;7.53
72675;BMP280;60752;53.962;9.614;2022-12-28T12:09:41;100576.88;;;7.54
72675;BMP280;60752;53.962;9.614;2022-12-28T12:14:43;100571.13;;;7.52
72675;BMP280;60752;53.962;9.614;2022-12-28T12:19:50;100569.34;;;7.57
72675;BMP280;60752;53.962;9.614;2022-12-28T12:24:55;100569.34;;;7.57
72675;BMP280;60752;53.962;9.614;2022-12-28T12:30:00;100560.50;;;7.58
72675;BMP280;60752;53.962;9.614;2022-12-28T12:35:03;100567.00;;;7.61
72675;BMP280;60752;53.962;9.614;2022-12-28T12:40:27;100568.59;;;7.67
72675;BMP280;60752;53.962;9.614;2022-12-28T12:45:45;100564.44;;;7.66
72675;BMP280;60752;53.962;9.614;2022-12-28T12:50:58;100552.47;;;7.65
72675;BMP280;60752;53.962;9.614;2022-12-28T12:56:09;100555.56;;;7.67
72675;BMP280;60752;53.962;9.614;2022-12-28T13:01:20;100555.88;;;7.70
72675;BMP280;60752;53.962;9.614;2022-12-28T13:06:28;100552.50;;;7.75
72675;BMP280;60752;53.962;9.614;2022-12-28T13:11:29;100541.81;;;7.71
72675;BMP280;60752;53.962;9.614;2022-12-28T13:16:30;100543.91;;;7.74
72675;BMP280;60752;53.962;9.614;2022-12-28T13:21:41;100538.19;;;7.78
72675;BMP280;60752;53.962;9.614;2022-12-28T13:26:41;100541.06;;;7.76
72675;BMP280;60752;53.962;9.614;2022-12-28T13:31:42;100540.00;;;7.77
72675;BMP280;60752;53.962;9.614;2022-12-28T13:36:48;100523.88;;;7.80
72675;BMP280;60752;53.962;9.614;2022-12-28T13:41:50;100528.56;;;7.78
72675;BMP280;60752;53.962;9.614;2022-12-28T13:46:55;100529.38;;;7.84
72675;BMP280;60752;53.962;9.614;2022-12-28T13:51:58;100516.06;;;7.85
72675;BMP280;60752;53.962;9.614;2022-12-28T13:56:59;100523.66;;;7.87
72675;BMP280;60752;53.962;9.614;2022-12-28T14:01:59;100516.34;;;7.84
72675;BMP280;60752;53.962;9.614;2022-12-28T14:07:02;100510.84;;;7.85
72675;BMP280;60752;53.962;9.614;2022-12-28T14:12:10;100518.44;;;7.87
72675;BMP280;60752;53.962;9.614;2022-12-28T14:17:11;100514.00;;;7.87
72675;BMP280;60752;53.962;9.614;2022-12-28T14:22:28;100512.44;;;7.86
72675;BMP280;60752;53.962;9.614;2022-12-28T14:27:29;100513.22;;;7.87
72675;BMP280;60752;53.962;9.614;2022-12-28T14:32:30;100504.13;;;7.89
72675;BMP280;60752;53.962;9.614;2022-12-28T14:37:35;100513.75;;;7.89
72675;BMP280;60752;53.962;9.614;2022-12-28T14:42:36;100496.31;;;7.89
72675;BMP280;60752;53.962;9.614;2022-12-28T14:47:42;100492.91;;;7.89
72675;BMP280;60752;53.962;9.614;2022-12-28T14:52:46;100496.00;;;7.86
72675;BMP280;60752;53.962;9.614;2022-12-28T14:57:50;100489.78;;;7.92
72675;BMP280;60752;53.962;9.614;2022-12-28T15:02:52;100487.19;;;7.87
72675;BMP280;60752;53.962;9.614;2022-12-28T15:07:53;100485.59;;;7.86
72675;BMP280;60752;53.962;9.614;2022-12-28T15:12:54;100476.78;;;7.87
72675;BMP280;60752;53.962;9.614;2022-12-28T15:17:54;100481.97;;;7.87
72675;BMP280;60752;53.962;9.614;2022-12-28T15:22:56;100475.47;;;7.84
72675;BMP280;60752;53.962;9.614;2022-12-28T15:27:56;100470.25;;;7.84
72675;BMP280;60752;53.962;9.614;2022-12-28T15:32:57;100462.44;;;7.84
72675;BMP280;60752;53.962;9.614;2022-12-28T15:37:59;100458.22;;;7.78
72675;BMP280;60752;53.962;9.614;2022-12-28T15:42:59;100463.44;;;7.78
72675;BMP280;60752;53.962;9.614;2022-12-28T15:48:00;100447.28;;;7.76
72675;BMP280;60752;53.962;9.614;2022-12-28T15:53:01;100443.66;;;7.77
72675;BMP280;60752;53.962;9.614;2022-12-28T15:58:02;100443.38;;;7.79
72675;BMP280;60752;53.962;9.614;2022-12-28T16:03:02;100441.03;;;7.77
72675;BMP280;60752;53.962;9.614;2022-12-28T16:08:04;100440.25;;;7.77
72675;BMP280;60752;53.962;9.614;2022-12-28T16:13:05;100431.41;;;7.78
72675;BMP280;60752;53.962;9.614;2022-12-28T16:18:05;100441.03;;;7.77
72675;BMP280;60752;53.962;9.614;2022-12-28T16:23:07;100434.78;;;7.78
72675;BMP280;60752;53.962;9.614;2022-12-28T16:28:07;100438.22;;;7.84
72675;BMP280;60752;53.962;9.614;2022-12-28T16:33:08;100424.38;;;7.78
72675;BMP280;60752;53.962;9.614;2022-12-28T16:38:09;100426.72;;;7.74
72675;BMP280;60752;53.962;9.614;2022-12-28T16:43:11;100420.47;;;7.76
72675;BMP280;60752;53.962;9.614;2022-12-28T16:48:14;100425.69;;;7.76
72675;BMP280;60752;53.962;9.614;2022-12-28T16:53:16;100417.06;;;7.70
72675;BMP280;60752;53.962;9.614;2022-12-28T16:58:16;100393.38;;;7.71
72675;BMP280;60752;53.962;9.614;2022-12-28T17:03:16;100403.75;;;7.66
72675;BMP280;60752;53.962;9.614;2022-12-28T17:08:18;100388.69;;;7.63
72675;BMP280;60752;53.962;9.614;2022-12-28T17:13:19;100380.31;;;7.61
72675;BMP280;60752;53.962;9.614;2022-12-28T17:18:19;100360.78;;;7.59
72675;BMP280;60752;53.962;9.614;2022-12-28T17:23:21;100338.91;;;7.60
72675;BMP280;60752;53.962;9.614;2022-12-28T17:28:22;100328.50;;;7.60
72675;BMP280;60752;53.962;9.614;2022-12-28T17:33:22;100318.09;;;7.60
72675;BMP280;60752;53.962;9.614;2022-12-28T17:38:24;100311.31;;;7.59
72675;BMP280;60752;53.962;9.614;2022-12-28T17:43:24;100302.47;;;7.60
72675;BMP280;60752;53.962;9.614;2022-12-28T17:48:25;100315.50;;;7.55
72675;BMP280;60752;53.962;9.614;2022-12-28T17:53:27;100319.41;;;7.52
72675;BMP280;60752;53.962;9.614;2022-12-28T17:58:28;100309.75;;;7.53
72675;BMP280;60752;53.962;9.614;2022-12-28T18:03:29;100303.47;;;7.49
72675;BMP280;60752;53.962;9.614;2022-12-28T18:08:31;100301.94;;;7.53
72675;BMP280;60752;53.962;9.614;2022-12-28T18:13:31;100294.13;;;7.53
72675;BMP280;60752;53.962;9.614;2022-12-28T18:18:32;100280.34;;;7.52
72675;BMP280;60752;53.962;9.614;2022-12-28T18:23:34;100277.47;;;7.54
72675;BMP280;60752;53.962;9.614;2022-12-28T18:28:34;100273.06;;;7.54
72675;BMP280;60752;53.962;9.614;2022-12-28T18:33:35;100252.97;;;7.50
72675;BMP280;60752;53.962;9.614;2022-12-28T18:38:38;100240.50;;;7.47
72675;BMP280;60752;53.962;9.614;2022-12-28T18:43:40;100255.09;;;7.53
72675;BMP280;60752;53.962;9.614;2022-12-28T18:48:41;100241.28;;;7.47
72675;BMP280;60752;53.962;9.614;2022-12-28T18:53:43;100233.69;;;7.45
72675;BMP280;60752;53.962;9.614;2022-12-28T18:58:48;100243.31;;;7.45
72675;BMP280;60752;53.962;9.614;2022-12-28T19:03:52;100238.91;;;7.45
72675;BMP280;60752;53.962;9.614;2022-12-28T19:08:57;100221.72;;;7.39
72675;BMP280;60752;53.962;9.614;2022-12-28T19:13:57;100203.00;;;7.37
72675;BMP280;60752;53.962;9.614;2022-12-28T19:18:58;100204.81;;;7.37
72675;BMP280;60752;53.962;9.614;2022-12-28T19:24:02;100191.03;;;7.36
72675;BMP280;60752;53.962;9.614;2022-12-28T19:29:03;100198.06;;;7.36
72675;BMP280;60752;53.962;9.614;2022-12-28T19:34:03;100188.69;;;7.35
72675;BMP280;60752;53.962;9.614;2022-12-28T19:39:05;100169.41;;;7.36
72675;BMP280;60752;53.962;9.614;2022-12-28T19:44:06;100168.09;;;7.28
72675;BMP280;60752;53.962;9.614;2022-12-28T19:49:06;100166.81;;;7.26
72675;BMP280;60752;53.962;9.614;2022-12-28T19:54:09;100160.56;;;7.22
72675;BMP280;60752;53.962;9.614;2022-12-28T19:59:10;100157.72;;;7.23
72675;BMP280;60752;53.962;9.614;2022-12-28T20:04:10;100153.28;;;7.19
72675;BMP280;60752;53.962;9.614;2022-12-28T20:09:13;100139.50;;;7.18
72675;BMP280;60752;53.962;9.614;2022-12-28T20:14:14;100142.31;;;7.17
72675;BMP280;60752;53.962;9.614;2022-12-28T20:19:15;100116.56;;;7.15
72675;BMP280;60752;53.962;9.614;2022-12-28T20:24:16;100116.09;;;7.13
72675;BMP280;60752;53.962;9.614;2022-12-28T20:29:17;100123.13;;;7.12
72675;BMP280;60752;53.962;9.614;2022-12-28T20:34:17;100119.44;;;7.08
72675;BMP280;60752;53.962;9.614;2022-12-28T20:39:19;100110.09;;;7.07
72675;BMP280;60752;53.962;9.614;2022-12-28T20:44:21;100093.97;;;7.05
72675;BMP280;60752;53.962;9.614;2022-12-28T20:49:23;100087.94;;;7.05
72675;BMP280;60752;53.962;9.614;2022-12-28T20:54:25;100077.56;;;7.05
72675;BMP280;60752;53.962;9.614;2022-12-28T20:59:26;100061.94;;;7.05
72675;BMP280;60752;53.962;9.614;2022-12-28T21:04:26;100051.53;;;7.05
72675;BMP280;60752;53.962;9.614;2022-12-28T21:09:28;100044.00;;;6.98
72675;BMP280;60752;53.962;9.614;2022-12-28T21:14:28;100027.63;;;6.98
72675;BMP280;60752;53.962;9.614;2022-12-28T21:19:29;100022.97;;;7.00
72675;BMP280;60752;53.962;9.614;2022-12-28T21:24:30;100015.16;;;7.00
72675;BMP280;60752;53.962;9.614;2022-12-28T21:29:31;100014.63;;;7.03
72675;BMP280;60752;53.962;9.614;2022-12-28T21:34:31;100011.75;;;6.99
72675;BMP280;60752;53.962;9.614;2022-12-28T21:39:33;99993.81;;;6.98
72675;BMP280;60752;53.962;9.614;2022-12-28T21:44:33;99979.00;;;6.98
72675;BMP280;60752;53.962;9.614;2022-12-28T21:49:33;99973.00;;;6.98
72675;BMP280;60752;53.962;9.614;2022-12-28T21:54:35;99971.19;;;6.98
72675;BMP280;60752;53.962;9.614;2022-12-28T21:59:36;99965.19;;;7.03
72675;BMP280;60752;53.962;9.614;2022-12-28T22:04:36;99965.50;;;7.01
72675;BMP280;60752;53.962;9.614;2022-12-28T22:09:39;99948.31;;;7.00
72675;BMP280;60752;53.962;9.614;2022-12-28T22:14:39;99939.47;;;7.01
72675;BMP280;60752;53.962;9.614;2022-12-28T22:19:40;99925.16;;;6.99
72675;BMP280;60752;53.962;9.614;2022-12-28T22:24:41;99929.34;;;7.00
72675;BMP280;60752;53.962;9.614;2022-12-28T22:29:42;99909.03;;;7.07
72675;BMP280;60752;53.962;9.614;2022-12-28T22:34:42;99909.31;;;7.00
72675;BMP280;60752;53.962;9.614;2022-12-28T22:39:44;99917.59;;;7.07
72675;BMP280;60752;53.962;9.614;2022-12-28T22:44:44;99919.47;;;7.02
72675;BMP280;60752;53.962;9.614;2022-12-28T22:49:45;99909.53;;;7.04
72675;BMP280;60752;53.962;9.614;2022-12-28T22:54:46;99894.72;;;7.04
72675;BMP280;60752;53.962;9.614;2022-12-28T22:59:47;99896.81;;;7.07
72675;BMP280;60752;53.962;9.614;2022-12-28T23:04:47;99894.19;;;7.07
72675;BMP280;60752;53.962;9.614;2022-12-28T23:09:49;99900.19;;;7.08
72675;BMP280;60752;53.962;9.614;2022-12-28T23:14:49;99903.84;;;7.12
72675;BMP280;60752;53.962;9.614;2022-12-28T23:19:50;99903.00;;;7.17
72675;BMP280;60752;53.962;9.614;2022-12-28T23:24:52;99897.28;;;7.14
72675;BMP280;60752;53.962;9.614;2022-12-28T23:29:52;99883.50;;;7.19
72675;BMP280;60752;53.962;9.614;2022-12-28T23:34:52;99888.44;;;7.21
72675;BMP280;60752;53.962;9.614;2022-12-28T23:39:54;99874.91;;;7.24
72675;BMP280;60752;53.962;9.614;2022-12-28T23:44:55;99868.38;;;7.26
72675;BMP280;60752;53.962;9.614;2022-12-28T23:49:55;99872.03;;;7.30
72675;BMP280;60752;53.962;9.614;2022-12-28T23:54:57;99839.53;;;7.23
72675;BMP280;60752;53.962;9.614;2022-12-28T23:59:57;99848.06;;;7.33
